Decoded Metar for UUYY (SYKTYVKAR in RUSSIA) (IATA:SCW) | Meteo·Mobile Aviation Weather
aviador You're here:

UUYY Decoded Metar

SYKTYVKAR in RUSSIA
Report Time2018-10-22 23:00:00
UTC Time2018-10-22 23:20:43
Flight Rules ifr IFR
Wind210° at 8 kt
W.Decomp.*RWY 19: 8.0 kt HW 0.6 kt RCW
W.Rank210° ranks 3
Current wind is above 210° avg. (5.9)
Visibility9000 m
Phenomena:Light Rain
Clouds:Overcast 009 Hf
Ceiling900 ft
Temp05°C (ISA -9)
Dew Point05°C (100% RH)
AAT1.0°C
QNH0998 hPa
Density Alt-92 ft
Elevation390 ft
Report Wrong Elevation
Raw Report
METAR UUYY 222300Z 21004MPS 9000 -RA OVC009 05/05 Q0998 R18/29//51
NOSIG RMK QFE740/0987=

Extra information for UUYY:More info

Metar Taf Metar & Taf Last 4 Metars F.Rules Stats Wind Profile Meteogram Temp Stats Airport Information Weather charts Add Link Nearby VenuesMetar ALERT Operation Metar Decoded Social comments